OWK weather

Central Maine Airport of Norridgewock
Norridgewock, Maine, United States

Public forecast

Using degrees Fahrenheit for public forecast. Weather courtesy of forecast.io.

Closest aviation weather report (METAR) to Central Maine Airport of Norridgewock

Closest report is Waterville Robert Lafleur Airport, 13.7 nm (25.3 km) SE. Retrieved 2019/10/16 15:56 UTC (16 minutes ago):

KWVL 161556Z AUTO VRB05KT 10SM CLR 14/08 A2999 RMK AO2 SLP182 T01440078

Closest aviation forecast (TAF) to Central Maine Airport of Norridgewock

Closest forecast is Augusta State Airport, 23.9 nm (44.3 km) S. Retrieved 2019/10/16 12:22 UTC (4 hours ago):

TAF KAUG 161120Z 1612/1712 VRB03KT P6SM SKC FM161500 16006KT P6SM SCT250 FM170400 09010KT P6SM BKN025 OVC040 FM170600 06020G30KT 3SM RA OVC009 WS020/10050KT